Terminal Aerodrome Forecast
Issued by NWS Sterling, VA

Current Version | Previous Version | Text Only | Print | Product List | Glossary Off
Versions: 1 2 3 4 5 6 7 8 9 10 11 12 13 14 15 16 17 18 19 20 21 22 23 24 25 26 27

087
FTUS41 KLWX 162337
TAFDCA
TAF
KDCA 162337Z 1700/1724 VRB03KT P6SM OVC025
     FM170600 VRB03KT P6SM OVC015
     FM171000 VRB03KT 5SM BR OVC008
     FM171200 16004KT 2SM BR OVC003
     FM171400 17005KT 2SM BR OVC008
     FM171500 17005KT 1SM -SHRA BR OVC008
     FM172100 19008KT P6SM OVC008=

USA.gov is the U.S. government's official web portal to all federal, state and local government web resources and services.